Time;durP1;ratioP1;P1;durP2;ratioP2;P2;SDS_P1;SDS_P2;PMS_P1;PMS_P2;Temp;Humidity;BMP_temperature;BMP_pressure;BME280_temperature;BME280_humidity;BME280_pressure;Samples;Min_cycle;Max_cycle;Signal;HPM_P1;HPM_P2
2023/12/08 00:02:03;;;;;;;11.40;9.20;;;;;;;;;;85592;210;3030325;-37
2023/12/08 00:04:42;;;;;;;10.40;9.00;;;;;;;;;;85546;210;3031076;-38
2023/12/08 00:07:24;;;;;;;11.20;8.80;;;;;;;;;;85601;210;3027828;-37
2023/12/08 00:10:04;;;;;;;11.20;9.20;;;;;;;;;;85541;210;3027520;-37
2023/12/08 00:12:52;;;;;;;10.40;9.00;;;;;;;;;;85605;210;3030851;-37
2023/12/08 00:15:31;;;;;;;11.50;9.60;;;;;;;;;;85587;210;3031378;-37
2023/12/08 00:18:11;;;;;;;11.00;9.00;;;;;;;;;;85550;210;3028113;-37
2023/12/08 00:20:49;;;;;;;11.10;9.10;;;;;;;;;;85596;210;3033160;-36
2023/12/08 00:23:35;;;;;;;10.60;9.20;;;;;;;;;;85641;210;3030602;-36
2023/12/08 00:26:22;;;;;;;11.30;9.70;;;;;;;;;;85558;210;3031789;-37
2023/12/08 00:29:01;;;;;;;10.10;8.80;;;;;;;;;;85526;210;3027895;-37
2023/12/08 00:31:41;;;;;;;10.00;8.90;;;;;;;;;;85646;210;3027753;-36
2023/12/08 00:34:22;;;;;;;11.60;9.20;;;;;;;;;;85612;210;3030550;-37
2023/12/08 00:37:05;;;;;;;10.20;8.80;;;;;;;;;;85576;210;3031560;-36
2023/12/08 00:39:53;;;;;;;11.20;9.00;;;;;;;;;;85554;210;3028008;-36
2023/12/08 00:42:34;;;;;;;10.40;9.00;;;;;;;;;;85581;210;3027661;-36
2023/12/08 00:45:14;;;;;;;10.40;9.00;;;;;;;;;;85596;210;3030220;-36
2023/12/08 00:47:57;;;;;;;12.00;9.20;;;;;;;;;;85564;210;3031981;-36
2023/12/08 00:50:41;;;;;;;10.20;8.80;;;;;;;;;;85589;210;3027936;-36
2023/12/08 00:53:25;;;;;;;10.10;8.90;;;;;;;;;;85615;210;3027379;-36
2023/12/08 00:56:08;;;;;;;10.50;8.80;;;;;;;;;;85591;210;3030733;-37
2023/12/08 00:58:47;;;;;;;10.30;8.80;;;;;;;;;;85595;210;3031514;-37
2023/12/08 01:01:28;;;;;;;10.40;9.00;;;;;;;;;;85566;210;3034588;-37
2023/12/08 01:04:13;;;;;;;10.20;8.60;;;;;;;;;;85557;210;3027940;-36
2023/12/08 01:06:56;;;;;;;10.70;8.80;;;;;;;;;;85587;210;3030858;-36
2023/12/08 01:09:35;;;;;;;9.50;8.30;;;;;;;;;;85486;210;3031095;-36
2023/12/08 01:12:19;;;;;;;10.00;8.60;;;;;;;;;;85559;210;3028252;-37
2023/12/08 01:14:56;;;;;;;10.10;8.50;;;;;;;;;;85571;210;3027511;-38
2023/12/08 01:17:35;;;;;;;10.50;8.50;;;;;;;;;;85595;210;3030927;-38
2023/12/08 01:20:19;;;;;;;9.60;8.50;;;;;;;;;;85542;210;3031150;-38
2023/12/08 01:22:58;;;;;;;;;;;;;;;;;;85582;210;3028398;-37
2023/12/08 01:25:39;;;;;;;10.10;8.80;;;;;;;;;;85589;210;3028076;-38
2023/12/08 01:28:22;;;;;;;10.70;8.80;;;;;;;;;;85618;210;3031065;-38
2023/12/08 01:31:02;;;;;;;10.10;8.50;;;;;;;;;;85591;210;3031668;-38
2023/12/08 01:33:46;;;;;;;9.90;8.30;;;;;;;;;;85608;210;3028609;-38
2023/12/08 01:36:26;;;;;;;10.60;8.60;;;;;;;;;;85602;210;3027578;-38
2023/12/08 01:39:24;;;;;;;10.20;8.30;;;;;;;;;;85638;210;3030922;-38
2023/12/08 01:42:06;;;;;;;9.90;8.00;;;;;;;;;;85574;210;3031494;-38
2023/12/08 01:44:50;;;;;;;10.80;8.60;;;;;;;;;;85608;210;3028076;-38
2023/12/08 01:47:32;;;;;;;10.70;8.50;;;;;;;;;;85603;210;3027549;-38
2023/12/08 01:50:16;;;;;;;9.90;8.20;;;;;;;;;;85552;210;3031091;-38
2023/12/08 01:52:56;;;;;;;9.80;8.40;;;;;;;;;;85577;210;3031509;-38
2023/12/08 01:55:37;;;;;;;9.40;8.10;;;;;;;;;;85578;210;3028059;-37
2023/12/08 01:58:22;;;;;;;10.00;8.70;;;;;;;;;;85586;210;3027148;-37
2023/12/08 02:01:03;;;;;;;9.70;8.00;;;;;;;;;;85595;210;3030693;-37
2023/12/08 02:03:48;;;;;;;9.30;8.10;;;;;;;;;;85635;210;3031137;-37
2023/12/08 02:06:29;;;;;;;10.10;8.20;;;;;;;;;;85595;210;3028275;-39
2023/12/08 02:09:10;;;;;;;11.00;8.40;;;;;;;;;;85610;210;3027346;-37
2023/12/08 02:11:53;;;;;;;9.90;8.10;;;;;;;;;;85560;210;3030691;-37
2023/12/08 02:14:34;;;;;;;9.60;8.00;;;;;;;;;;85622;210;3032203;-38
2023/12/08 02:17:20;;;;;;;9.20;8.20;;;;;;;;;;85586;210;3028171;-37
2023/12/08 02:20:03;;;;;;;9.30;8.00;;;;;;;;;;85605;210;3027538;-37
2023/12/08 02:22:47;;;;;;;9.60;8.20;;;;;;;;;;85524;210;3030619;-37
2023/12/08 02:25:27;;;;;;;10.20;8.50;;;;;;;;;;85537;210;3031513;-38
2023/12/08 02:28:18;;;;;;;9.60;8.30;;;;;;;;;;85573;210;3027876;-39
2023/12/08 02:31:08;;;;;;;9.40;7.70;;;;;;;;;;85563;210;3027751;-37
2023/12/08 02:33:53;;;;;;;9.60;7.90;;;;;;;;;;84628;210;3037563;-38
2023/12/08 02:36:35;;;;;;;9.60;8.00;;;;;;;;;;85626;210;3031665;-37
2023/12/08 02:39:14;;;;;;;9.50;7.80;;;;;;;;;;85589;210;3027975;-38
2023/12/08 02:41:53;;;;;;;8.80;7.40;;;;;;;;;;85601;210;3027427;-38
2023/12/08 02:44:36;;;;;;;9.10;7.70;;;;;;;;;;85572;210;3031151;-37
2023/12/08 02:47:17;;;;;;;9.10;7.60;;;;;;;;;;85547;210;3033879;-37
2023/12/08 02:49:56;;;;;;;9.10;7.70;;;;;;;;;;85586;210;3027832;-37
2023/12/08 02:52:37;;;;;;;9.20;7.70;;;;;;;;;;85504;210;3027065;-37
2023/12/08 02:55:21;;;;;;;9.30;7.50;;;;;;;;;;85558;210;3030933;-37
2023/12/08 02:58:04;;;;;;;;;;;;;;;;;;85580;210;3031038;-36
2023/12/08 03:00:43;;;;;;;9.40;7.90;;;;;;;;;;85565;210;3028314;-37
2023/12/08 03:03:27;;;;;;;9.90;7.80;;;;;;;;;;85549;210;3027250;-36
2023/12/08 03:06:11;;;;;;;9.20;7.60;;;;;;;;;;85551;210;3031040;-36
2023/12/08 03:08:55;;;;;;;9.40;7.60;;;;;;;;;;85579;210;3031541;-36
2023/12/08 03:11:35;;;;;;;9.70;7.70;;;;;;;;;;85636;210;3028418;-36
2023/12/08 03:14:16;;;;;;;9.40;7.90;;;;;;;;;;85596;210;3026880;-36
2023/12/08 03:16:55;;;;;;;9.50;7.40;;;;;;;;;;85578;210;3030225;-36
2023/12/08 03:19:33;;;;;;;9.50;7.70;;;;;;;;;;85598;210;3031541;-36
2023/12/08 03:22:21;;;;;;;9.70;7.80;;;;;;;;;;85524;210;3027761;-36
2023/12/08 03:24:59;;;;;;;8.90;7.40;;;;;;;;;;85543;210;3033899;-36
2023/12/08 03:27:39;;;;;;;10.10;7.40;;;;;;;;;;85610;210;3030664;-36
2023/12/08 03:30:22;;;;;;;9.10;7.20;;;;;;;;;;85640;210;3033852;-37
2023/12/08 03:33:00;;;;;;;9.20;7.80;;;;;;;;;;85504;210;3027956;-37
2023/12/08 03:35:40;;;;;;;9.50;7.40;;;;;;;;;;85543;210;3026893;-37
2023/12/08 03:38:17;;;;;;;8.80;7.30;;;;;;;;;;85617;210;3030567;-37
2023/12/08 03:41:00;;;;;;;9.20;7.60;;;;;;;;;;85631;210;3032001;-36
2023/12/08 03:43:38;;;;;;;9.00;7.20;;;;;;;;;;85570;210;3027684;-36
2023/12/08 03:46:18;;;;;;;9.00;7.40;;;;;;;;;;85626;210;3027715;-37
2023/12/08 03:48:57;;;;;;;9.00;7.20;;;;;;;;;;85558;210;3031060;-37
2023/12/08 03:51:37;;;;;;;10.20;7.80;;;;;;;;;;85586;210;3030944;-37
2023/12/08 03:54:16;;;;;;;8.90;7.00;;;;;;;;;;85568;210;3028335;-36
2023/12/08 03:56:55;;;;;;;9.30;7.40;;;;;;;;;;85603;210;3026804;-37
2023/12/08 03:59:38;;;;;;;8.90;7.20;;;;;;;;;;85573;210;3030774;-36
2023/12/08 04:02:15;;;;;;;8.50;7.60;;;;;;;;;;85639;210;3031593;-36
2023/12/08 04:04:58;;;;;;;10.10;7.60;;;;;;;;;;85557;210;3027936;-36
2023/12/08 04:07:43;;;;;;;9.40;7.40;;;;;;;;;;85634;210;3027050;-36
2023/12/08 04:10:30;;;;;;;11.10;7.50;;;;;;;;;;85589;210;3030317;-36
2023/12/08 04:13:10;;;;;;;10.30;7.80;;;;;;;;;;85575;210;3031559;-39
2023/12/08 04:15:51;;;;;;;9.80;7.60;;;;;;;;;;85437;210;3028282;-36
2023/12/08 04:18:32;;;;;;;9.80;7.40;;;;;;;;;;85582;210;3027059;-36
2023/12/08 04:21:22;;;;;;;9.80;7.50;;;;;;;;;;85562;210;3030697;-36
2023/12/08 04:24:01;;;;;;;10.40;7.90;;;;;;;;;;85432;210;3031100;-38
2023/12/08 04:26:45;;;;;;;10.20;7.60;;;;;;;;;;85534;210;3027982;-37
2023/12/08 04:29:24;;;;;;;9.10;6.80;;;;;;;;;;85584;210;3026981;-37
2023/12/08 04:32:07;;;;;;;9.80;7.10;;;;;;;;;;85608;210;3030583;-37
2023/12/08 04:34:45;;;;;;;10.90;7.90;;;;;;;;;;85554;210;3031523;-38
2023/12/08 04:37:30;;;;;;;11.80;8.30;;;;;;;;;;85636;210;3028627;-36
2023/12/08 04:40:12;;;;;;;9.20;7.20;;;;;;;;;;85536;210;3027303;-37
2023/12/08 04:42:50;;;;;;;10.90;7.90;;;;;;;;;;85632;211;3030706;-38
2023/12/08 04:45:33;;;;;;;10.10;7.50;;;;;;;;;;85541;211;3031251;-37
2023/12/08 04:48:12;;;;;;;9.80;7.80;;;;;;;;;;85575;211;3027761;-40
2023/12/08 04:50:55;;;;;;;9.30;7.30;;;;;;;;;;85596;211;3027176;-39
2023/12/08 04:53:34;;;;;;;9.70;7.30;;;;;;;;;;85563;211;3030694;-39
2023/12/08 04:56:12;;;;;;;9.80;7.40;;;;;;;;;;85543;211;3031288;-38
2023/12/08 04:58:51;;;;;;;9.30;7.40;;;;;;;;;;85423;211;3028512;-39
2023/12/08 05:01:32;;;;;;;10.90;7.20;;;;;;;;;;85562;211;3027655;-36
2023/12/08 05:04:11;;;;;;;10.10;7.20;;;;;;;;;;85592;211;3030832;-37
2023/12/08 05:06:51;;;;;;;10.70;7.70;;;;;;;;;;85536;211;3031522;-36
2023/12/08 05:09:32;;;;;;;10.40;7.60;;;;;;;;;;85568;211;3029062;-35
2023/12/08 05:12:19;;;;;;;9.90;7.50;;;;;;;;;;85611;211;3027143;-40
2023/12/08 05:14:56;;;;;;;10.10;7.70;;;;;;;;;;85489;211;3030762;-38
2023/12/08 05:17:35;;;;;;;10.00;7.80;;;;;;;;;;85596;211;3031435;-36
2023/12/08 05:20:15;;;;;;;9.10;7.10;;;;;;;;;;85562;211;3028101;-36
2023/12/08 05:22:54;;;;;;;9.80;7.90;;;;;;;;;;85557;211;3027626;-36
2023/12/08 05:25:35;;;;;;;9.80;7.80;;;;;;;;;;85573;211;3030616;-38
2023/12/08 05:28:15;;;;;;;9.70;7.60;;;;;;;;;;85598;211;3031554;-38
2023/12/08 05:30:57;;;;;;;10.10;8.20;;;;;;;;;;85616;211;3028258;-37
2023/12/08 05:33:34;;;;;;;10.00;7.60;;;;;;;;;;85567;211;3027456;-38
2023/12/08 05:36:13;;;;;;;10.30;7.90;;;;;;;;;;85414;211;3030859;-36
2023/12/08 05:38:52;;;;;;;9.70;7.50;;;;;;;;;;85572;211;3031931;-35
2023/12/08 05:41:32;;;;;;;9.90;7.70;;;;;;;;;;85608;210;3027829;-36
2023/12/08 05:44:16;;;;;;;10.30;7.70;;;;;;;;;;85601;210;3027019;-38
2023/12/08 05:46:57;;;;;;;9.90;7.70;;;;;;;;;;85536;210;3030455;-36
2023/12/08 05:49:39;;;;;;;10.00;7.80;;;;;;;;;;85593;210;3031917;-36
2023/12/08 05:52:25;;;;;;;9.60;7.70;;;;;;;;;;85555;210;3028336;-36
2023/12/08 05:55:03;;;;;;;10.40;8.20;;;;;;;;;;85617;210;3027695;-36
2023/12/08 05:57:42;;;;;;;10.10;8.10;;;;;;;;;;85520;210;3031043;-37
2023/12/08 06:00:21;;;;;;;9.20;7.60;;;;;;;;;;85562;210;3031760;-36
2023/12/08 06:02:58;;;;;;;9.90;7.90;;;;;;;;;;85568;210;3028680;-36
2023/12/08 06:05:37;;;;;;;9.80;7.70;;;;;;;;;;85619;210;3027483;-37
2023/12/08 06:08:15;;;;;;;10.60;7.90;;;;;;;;;;85575;210;3037031;-37
2023/12/08 06:10:52;;;;;;;9.70;8.20;;;;;;;;;;85588;210;3030902;-36
2023/12/08 06:13:29;;;;;;;10.50;8.00;;;;;;;;;;85588;210;3027743;-38
2023/12/08 06:16:12;;;;;;;11.00;8.00;;;;;;;;;;85585;210;3027778;-36
2023/12/08 06:18:58;;;;;;;10.10;7.60;;;;;;;;;;85578;210;3037237;-36
2023/12/08 06:21:37;;;;;;;10.30;8.20;;;;;;;;;;85614;210;3031675;-36
2023/12/08 06:24:20;;;;;;;9.60;8.00;;;;;;;;;;85590;210;3029882;-36
2023/12/08 06:26:57;;;;;;;9.10;7.70;;;;;;;;;;85584;210;3026873;-36
2023/12/08 06:29:36;;;;;;;10.40;7.90;;;;;;;;;;85607;210;3031868;-37
2023/12/08 06:32:18;;;;;;;9.60;8.00;;;;;;;;;;85617;210;3031815;-38
2023/12/08 06:35:00;;;;;;;11.10;7.90;;;;;;;;;;85573;210;3028469;-38
2023/12/08 06:37:43;;;;;;;9.90;8.00;;;;;;;;;;85530;210;3027481;-38
2023/12/08 06:40:25;;;;;;;10.90;8.30;;;;;;;;;;85528;210;3031054;-36
2023/12/08 06:43:09;;;;;;;10.00;8.00;;;;;;;;;;85566;210;3031660;-36
2023/12/08 06:45:50;;;;;;;10.20;8.00;;;;;;;;;;85591;210;3027849;-36
2023/12/08 06:48:29;;;;;;;10.70;8.30;;;;;;;;;;85554;210;3027453;-36
2023/12/08 06:51:07;;;;;;;11.00;8.60;;;;;;;;;;85551;210;3030106;-36
2023/12/08 06:53:45;;;;;;;11.40;8.30;;;;;;;;;;85592;210;3032702;-37
2023/12/08 06:56:26;;;;;;;12.10;8.20;;;;;;;;;;85593;210;3027791;-37
2023/12/08 06:59:08;;;;;;;10.40;8.20;;;;;;;;;;85568;210;3027678;-37
2023/12/08 07:01:53;;;;;;;10.90;8.60;;;;;;;;;;85567;210;3031481;-37
2023/12/08 07:04:35;;;;;;;11.40;8.30;;;;;;;;;;85564;210;3031082;-37
2023/12/08 07:07:15;;;;;;;10.50;8.30;;;;;;;;;;85577;210;3028508;-38
2023/12/08 07:09:54;;;;;;;10.50;8.30;;;;;;;;;;85561;210;3033138;-38
2023/12/08 07:12:34;;;;;;;11.30;8.90;;;;;;;;;;85600;210;3031124;-39
2023/12/08 07:15:13;;;;;;;10.90;8.50;;;;;;;;;;85578;210;3031987;-39
2023/12/08 07:17:57;;;;;;;11.20;8.60;;;;;;;;;;85572;210;3028233;-41
2023/12/08 07:20:34;;;;;;;11.00;8.60;;;;;;;;;;85625;210;3027167;-39
2023/12/08 07:23:13;;;;;;;10.60;8.30;;;;;;;;;;85606;210;3031106;-39
2023/12/08 07:25:57;;;;;;;11.90;8.60;;;;;;;;;;85546;210;3031812;-39
2023/12/08 07:28:42;;;;;;;11.00;8.50;;;;;;;;;;85555;210;3029113;-39
2023/12/08 07:31:25;;;;;;;11.60;8.50;;;;;;;;;;85599;210;3027688;-39
2023/12/08 07:34:11;;;;;;;11.10;9.00;;;;;;;;;;85596;210;3030179;-39
2023/12/08 07:36:52;;;;;;;11.10;8.70;;;;;;;;;;85570;210;3031334;-37
2023/12/08 07:39:35;;;;;;;11.10;8.40;;;;;;;;;;85524;210;3028500;-37
2023/12/08 07:42:15;;;;;;;10.50;8.50;;;;;;;;;;85571;210;3027185;-37
2023/12/08 07:44:59;;;;;;;10.40;8.20;;;;;;;;;;85577;210;3030884;-37
2023/12/08 07:47:45;;;;;;;10.40;8.20;;;;;;;;;;85582;210;3031334;-37
2023/12/08 07:50:31;;;;;;;11.00;8.40;;;;;;;;;;85577;210;3028595;-37
2023/12/08 07:53:12;;;;;;;11.80;8.90;;;;;;;;;;85607;210;3027775;-37
2023/12/08 07:55:51;;;;;;;11.80;8.80;;;;;;;;;;85601;210;3030917;-37
2023/12/08 07:58:31;;;;;;;12.30;9.40;;;;;;;;;;85634;210;3032570;-37
2023/12/08 08:01:10;;;;;;;12.00;9.50;;;;;;;;;;85583;210;3028350;-37
2023/12/08 08:03:50;;;;;;;12.30;9.10;;;;;;;;;;85597;210;3028729;-37
2023/12/08 08:06:28;;;;;;;13.00;9.70;;;;;;;;;;85611;210;3031097;-37
2023/12/08 08:09:07;;;;;;;12.60;9.70;;;;;;;;;;85506;210;3032109;-40
2023/12/08 08:11:46;;;;;;;14.10;10.10;;;;;;;;;;85586;210;3027839;-40
2023/12/08 08:14:26;;;;;;;15.10;10.40;;;;;;;;;;85565;210;3027661;-40
2023/12/08 08:17:08;;;;;;;14.20;10.20;;;;;;;;;;85576;210;3030666;-40
2023/12/08 08:19:49;;;;;;;13.10;9.80;;;;;;;;;;85544;210;3031451;-47
2023/12/08 08:22:33;;;;;;;15.20;10.50;;;;;;;;;;85604;211;3028406;-50
2023/12/08 08:25:12;;;;;;;15.30;10.30;;;;;;;;;;85576;210;3027607;-44
2023/12/08 08:27:53;;;;;;;13.10;10.10;;;;;;;;;;85599;210;3030869;-41
2023/12/08 08:30:30;;;;;;;14.00;9.80;;;;;;;;;;85620;211;3031595;-45
2023/12/08 08:33:12;;;;;;;13.30;10.10;;;;;;;;;;85641;211;3034686;-51
2023/12/08 08:35:51;;;;;;;13.10;9.90;;;;;;;;;;85622;211;3026929;-47
2023/12/08 08:38:33;;;;;;;14.00;10.30;;;;;;;;;;85621;210;3030263;-46
2023/12/08 08:41:14;;;;;;;13.70;10.00;;;;;;;;;;85582;210;3030974;-49
2023/12/08 08:43:54;;;;;;;13.70;10.60;;;;;;;;;;85694;210;3027911;-45
2023/12/08 08:46:38;;;;;;;15.70;10.60;;;;;;;;;;85712;210;3027498;-45
2023/12/08 08:49:18;;;;;;;13.40;10.10;;;;;;;;;;85641;210;3029601;-42
2023/12/08 08:52:00;;;;;;;13.90;10.80;;;;;;;;;;85668;210;3031397;-49
2023/12/08 08:54:40;;;;;;;12.20;9.70;;;;;;;;;;85638;211;3028485;-44
2023/12/08 08:57:23;;;;;;;13.20;9.60;;;;;;;;;;85428;211;3027938;-43
2023/12/08 09:00:00;;;;;;;13.20;10.10;;;;;;;;;;85611;211;3030622;-43
2023/12/08 09:02:43;;;;;;;13.90;10.00;;;;;;;;;;85618;211;3031533;-45
2023/12/08 09:05:30;;;;;;;11.90;9.70;;;;;;;;;;85649;211;3028043;-49
2023/12/08 09:08:10;;;;;;;12.70;9.70;;;;;;;;;;85577;211;3026996;-49
2023/12/08 09:10:50;;;;;;;12.80;10.20;;;;;;;;;;85604;211;3030917;-43
2023/12/08 09:13:33;;;;;;;15.00;10.50;;;;;;;;;;85612;211;3031320;-48
2023/12/08 09:16:12;;;;;;;12.60;9.70;;;;;;;;;;85620;211;3029042;-46
2023/12/08 09:18:50;;;;;;;12.70;9.60;;;;;;;;;;85609;211;3026983;-46
2023/12/08 09:21:29;;;;;;;13.80;10.20;;;;;;;;;;85552;210;3030827;-45
2023/12/08 09:24:22;;;;;;;12.50;9.80;;;;;;;;;;85606;210;3037653;-49
2023/12/08 09:27:01;;;;;;;12.40;10.20;;;;;;;;;;85629;210;3028523;-43
2023/12/08 09:29:47;;;;;;;12.80;9.70;;;;;;;;;;85650;210;3027480;-49
2023/12/08 09:32:26;;;;;;;12.60;10.20;;;;;;;;;;85581;210;3030737;-48
2023/12/08 09:35:06;;;;;;;12.80;10.20;;;;;;;;;;85585;210;3031934;-49
2023/12/08 09:37:46;;;;;;;12.20;9.90;;;;;;;;;;85599;210;3028512;-49
2023/12/08 09:40:27;;;;;;;12.10;10.10;;;;;;;;;;85644;210;3027642;-49
2023/12/08 09:43:12;;;;;;;12.20;10.10;;;;;;;;;;85594;210;3030526;-46
2023/12/08 09:45:50;;;;;;;12.60;10.20;;;;;;;;;;85612;210;3031516;-49
2023/12/08 09:48:32;;;;;;;11.90;9.60;;;;;;;;;;85616;210;3028362;-48
2023/12/08 09:51:16;;;;;;;13.00;10.10;;;;;;;;;;85660;210;3027042;-49
2023/12/08 09:53:52;;;;;;;;;;;;;;;;;;85598;210;3030581;-45
2023/12/08 09:56:30;;;;;;;13.80;10.20;;;;;;;;;;85629;210;3031811;-49
2023/12/08 09:59:08;;;;;;;12.10;10.00;;;;;;;;;;85629;210;3028222;-49
2023/12/08 10:01:47;;;;;;;12.70;9.80;;;;;;;;;;85640;210;3027857;-48
2023/12/08 10:04:23;;;;;;;11.60;9.90;;;;;;;;;;85663;210;3030877;-49
2023/12/08 10:07:07;;;;;;;12.50;10.20;;;;;;;;;;85598;210;3031526;-49
2023/12/08 10:09:47;;;;;;;11.80;9.60;;;;;;;;;;85610;210;3028421;-49
2023/12/08 10:12:25;;;;;;;12.30;10.10;;;;;;;;;;85597;210;3027975;-47
2023/12/08 10:15:04;;;;;;;13.00;10.30;;;;;;;;;;85543;210;3030675;-49
2023/12/08 10:17:50;;;;;;;12.60;10.20;;;;;;;;;;85641;210;3031662;-49
2023/12/08 10:20:31;;;;;;;12.60;9.50;;;;;;;;;;85577;210;3027812;-49
2023/12/08 10:23:09;;;;;;;12.20;9.70;;;;;;;;;;85602;210;3027599;-49
2023/12/08 10:25:49;;;;;;;11.80;9.80;;;;;;;;;;85612;210;3037422;-49
2023/12/08 10:28:31;;;;;;;12.20;9.90;;;;;;;;;;85620;210;3031789;-49
2023/12/08 10:31:18;;;;;;;12.00;10.20;;;;;;;;;;85613;210;3027896;-45
2023/12/08 10:34:01;;;;;;;11.60;9.40;;;;;;;;;;85044;210;3721973;-49
2023/12/08 10:36:40;;;;;;;12.80;10.80;;;;;;;;;;85634;210;3030915;-48
2023/12/08 10:39:18;;;;;;;11.80;9.70;;;;;;;;;;85623;210;3031196;-49
2023/12/08 10:41:57;;;;;;;12.80;10.30;;;;;;;;;;85615;210;3028500;-48
2023/12/08 10:44:38;;;;;;;12.30;9.90;;;;;;;;;;85604;210;3027501;-47
2023/12/08 10:47:16;;;;;;;11.80;9.90;;;;;;;;;;85625;210;3030721;-49
2023/12/08 10:49:56;;;;;;;11.30;9.60;;;;;;;;;;85642;210;3031142;-49
2023/12/08 10:52:39;;;;;;;12.20;10.10;;;;;;;;;;85560;210;3027911;-46
2023/12/08 10:55:17;;;;;;;11.10;9.30;;;;;;;;;;85570;210;3027044;-44
2023/12/08 10:57:58;;;;;;;12.50;9.90;;;;;;;;;;85615;210;3030976;-46
2023/12/08 11:00:38;;;;;;;12.00;9.90;;;;;;;;;;85591;210;3031125;-47
2023/12/08 11:03:19;;;;;;;12.30;10.50;;;;;;;;;;85564;210;3028107;-44
2023/12/08 11:06:04;;;;;;;12.20;10.40;;;;;;;;;;85544;210;3027722;-45
2023/12/08 11:08:48;;;;;;;11.80;9.90;;;;;;;;;;85590;210;3030992;-43
2023/12/08 11:11:26;;;;;;;;;;;;;;;;;;85654;210;3030936;-44
2023/12/08 11:14:10;;;;;;;12.50;10.00;;;;;;;;;;85579;210;3028072;-48
2023/12/08 11:17:04;;;;;;;12.70;10.30;;;;;;;;;;85566;210;3032412;-46
2023/12/08 11:19:45;;;;;;;13.10;10.80;;;;;;;;;;85622;210;3030296;-43
2023/12/08 11:22:25;;;;;;;12.60;10.00;;;;;;;;;;85627;211;3031763;-44
2023/12/08 11:25:17;;;;;;;12.90;10.50;;;;;;;;;;85591;211;3028454;-44
2023/12/08 11:28:06;;;;;;;11.80;9.80;;;;;;;;;;85633;211;3027538;-47
2023/12/08 11:30:52;;;;;;;12.40;9.70;;;;;;;;;;85567;211;3031335;-46
2023/12/08 11:33:48;;;;;;;12.70;10.20;;;;;;;;;;85579;211;3032698;-46
2023/12/08 11:36:33;;;;;;;11.80;10.50;;;;;;;;;;85582;211;3027637;-46
2023/12/08 11:39:51;;;;;;;13.10;10.70;;;;;;;;;;85632;211;3027769;-46
2023/12/08 11:42:35;;;;;;;12.30;10.60;;;;;;;;;;85625;211;3031018;-46
2023/12/08 11:45:17;;;;;;;12.80;10.60;;;;;;;;;;85614;211;3031043;-47
2023/12/08 11:47:58;;;;;;;12.20;10.00;;;;;;;;;;85611;211;3034732;-44
2023/12/08 11:50:40;;;;;;;11.70;9.80;;;;;;;;;;85576;211;3027298;-46
2023/12/08 11:53:19;;;;;;;13.30;10.70;;;;;;;;;;85665;211;3030356;-43
2023/12/08 11:56:00;;;;;;;11.90;10.30;;;;;;;;;;85581;211;3031459;-46
2023/12/08 11:58:40;;;;;;;11.90;10.00;;;;;;;;;;85617;211;3028427;-47
2023/12/08 12:01:23;;;;;;;13.00;10.90;;;;;;;;;;85584;211;3027762;-47
2023/12/08 12:04:03;;;;;;;12.50;10.50;;;;;;;;;;85642;211;3030362;-46
2023/12/08 12:06:40;;;;;;;12.30;10.20;;;;;;;;;;85572;211;3031864;-48
2023/12/08 12:09:21;;;;;;;13.50;11.00;;;;;;;;;;85563;211;3029156;-48
2023/12/08 12:12:00;;;;;;;12.30;10.60;;;;;;;;;;85590;211;3026942;-48
2023/12/08 12:14:46;;;;;;;13.00;11.00;;;;;;;;;;85680;211;3030208;-48
2023/12/08 12:17:24;;;;;;;12.10;9.90;;;;;;;;;;85567;211;3032052;-49
2023/12/08 12:20:01;;;;;;;12.20;10.30;;;;;;;;;;85639;210;3028304;-44
2023/12/08 12:22:42;;;;;;;12.30;10.50;;;;;;;;;;85581;210;3027932;-48
2023/12/08 12:25:19;;;;;;;12.60;10.90;;;;;;;;;;85574;210;3031138;-48
2023/12/08 12:28:00;;;;;;;13.00;11.10;;;;;;;;;;85451;210;3031683;-48
2023/12/08 12:30:36;;;;;;;12.20;10.40;;;;;;;;;;85594;210;3028027;-46
2023/12/08 12:33:20;;;;;;;12.70;10.80;;;;;;;;;;85544;210;3029488;-48
2023/12/08 12:36:05;;;;;;;12.10;10.60;;;;;;;;;;85583;210;3030911;-47
2023/12/08 12:38:47;;;;;;;12.40;10.60;;;;;;;;;;85554;210;3031326;-47
2023/12/08 12:41:29;;;;;;;12.60;10.40;;;;;;;;;;85617;210;3028054;-49
2023/12/08 12:44:07;;;;;;;13.30;10.80;;;;;;;;;;85556;210;3027417;-45
2023/12/08 12:46:49;;;;;;;12.10;10.40;;;;;;;;;;85539;210;3031843;-47
2023/12/08 12:49:25;;;;;;;12.50;10.20;;;;;;;;;;85621;210;3031590;-49
2023/12/08 12:52:03;;;;;;;13.00;10.90;;;;;;;;;;85613;210;3028504;-46
2023/12/08 12:54:42;;;;;;;12.50;10.40;;;;;;;;;;85627;210;3027677;-49
2023/12/08 12:57:21;;;;;;;12.90;10.80;;;;;;;;;;85594;210;3031121;-49
2023/12/08 12:59:59;;;;;;;12.40;10.50;;;;;;;;;;85625;210;3031776;-48
2023/12/08 13:02:37;;;;;;;13.10;10.70;;;;;;;;;;85664;210;3028239;-49
2023/12/08 13:05:15;;;;;;;12.80;10.20;;;;;;;;;;85592;210;3027833;-49
2023/12/08 13:08:03;;;;;;;12.70;10.70;;;;;;;;;;85584;210;3031439;-49
2023/12/08 13:10:40;;;;;;;12.80;10.90;;;;;;;;;;85581;210;3031762;-46
2023/12/08 13:13:16;;;;;;;12.90;10.80;;;;;;;;;;85590;210;3028274;-49
2023/12/08 13:15:55;;;;;;;13.30;11.00;;;;;;;;;;85621;210;3028483;-49
2023/12/08 13:18:32;;;;;;;12.90;11.10;;;;;;;;;;85605;210;3030649;-49
2023/12/08 13:21:14;;;;;;;12.70;10.90;;;;;;;;;;85656;210;3031336;-48
2023/12/08 13:23:55;;;;;;;12.70;10.50;;;;;;;;;;85669;210;3028929;-49
2023/12/08 13:26:32;;;;;;;12.60;10.70;;;;;;;;;;85663;210;3027084;-49
2023/12/08 13:29:10;;;;;;;12.00;10.20;;;;;;;;;;85592;210;3030779;-49
2023/12/08 13:31:47;;;;;;;13.20;10.70;;;;;;;;;;85635;210;3031752;-49
2023/12/08 13:34:25;;;;;;;13.20;10.90;;;;;;;;;;85655;210;3028387;-48
2023/12/08 13:37:01;;;;;;;13.10;11.00;;;;;;;;;;85669;210;3027158;-48
2023/12/08 13:39:41;;;;;;;12.90;10.50;;;;;;;;;;85615;210;3031640;-49
2023/12/08 13:42:26;;;;;;;12.60;10.50;;;;;;;;;;85698;210;3031111;-48
2023/12/08 13:45:07;;;;;;;12.90;10.90;;;;;;;;;;85601;210;3028798;-49
2023/12/08 13:47:49;;;;;;;13.10;10.60;;;;;;;;;;85633;210;3028743;-49
2023/12/08 13:50:27;;;;;;;12.50;10.60;;;;;;;;;;85602;210;3039394;-48
2023/12/08 13:53:06;;;;;;;13.00;10.40;;;;;;;;;;85616;210;3031201;-48
2023/12/08 13:55:45;;;;;;;13.20;11.00;;;;;;;;;;85606;210;3028378;-48
2023/12/08 13:58:22;;;;;;;13.70;11.00;;;;;;;;;;85583;210;3028191;-49
2023/12/08 14:00:59;;;;;;;13.50;10.90;;;;;;;;;;85616;210;3037810;-49
2023/12/08 14:03:41;;;;;;;14.00;10.70;;;;;;;;;;85647;210;3031524;-48
2023/12/08 14:06:20;;;;;;;15.00;10.90;;;;;;;;;;85573;210;3028041;-48
2023/12/08 14:08:59;;;;;;;14.90;11.40;;;;;;;;;;85561;210;3027682;-47
2023/12/08 14:11:36;;;;;;;14.10;11.40;;;;;;;;;;85589;210;3031196;-48
2023/12/08 14:14:15;;;;;;;14.70;11.00;;;;;;;;;;85587;210;3031052;-47
2023/12/08 14:16:54;;;;;;;14.80;11.80;;;;;;;;;;85632;210;3028718;-48
2023/12/08 14:19:32;;;;;;;14.00;10.70;;;;;;;;;;85577;210;3027224;-49
2023/12/08 14:22:12;;;;;;;15.90;11.40;;;;;;;;;;85601;210;3031296;-49
2023/12/08 14:24:50;;;;;;;14.40;11.40;;;;;;;;;;85568;210;3031208;-48
2023/12/08 14:27:28;;;;;;;16.00;11.40;;;;;;;;;;85595;210;3028201;-47
2023/12/08 14:30:10;;;;;;;13.70;11.30;;;;;;;;;;85564;210;3028112;-46
2023/12/08 14:32:50;;;;;;;13.90;11.40;;;;;;;;;;85612;210;3030984;-49
2023/12/08 14:35:29;;;;;;;14.10;11.60;;;;;;;;;;85350;210;3031306;-46
2023/12/08 14:38:13;;;;;;;14.30;11.20;;;;;;;;;;85677;210;3029302;-48
2023/12/08 14:40:53;;;;;;;14.40;11.20;;;;;;;;;;85625;210;3028224;-46
2023/12/08 14:43:32;;;;;;;15.10;11.50;;;;;;;;;;85618;210;3030995;-47
2023/12/08 14:46:13;;;;;;;15.50;11.60;;;;;;;;;;85656;210;3032929;-39
2023/12/08 14:49:11;;;;;;;14.90;11.80;;;;;;;;;;85542;209;3027341;-46
2023/12/08 14:51:55;;;;;;;15.10;11.20;;;;;;;;;;85739;210;3034741;-42
2023/12/08 14:54:32;;;;;;;14.80;11.40;;;;;;;;;;85656;211;3031118;-45
2023/12/08 14:57:14;;;;;;;13.60;11.10;;;;;;;;;;85733;210;3032846;-45
2023/12/08 14:59:53;;;;;;;15.00;11.10;;;;;;;;;;85798;210;3028042;-43
2023/12/08 15:02:31;;;;;;;14.80;12.10;;;;;;;;;;85867;210;3027697;-48
2023/12/08 15:05:09;;;;;;;14.10;11.60;;;;;;;;;;85793;210;3030815;-49
2023/12/08 15:07:46;;;;;;;15.70;12.10;;;;;;;;;;85761;210;3031287;-44
2023/12/08 15:10:25;;;;;;;15.20;12.00;;;;;;;;;;85780;210;3028138;-45
2023/12/08 15:13:03;;;;;;;14.70;12.10;;;;;;;;;;85868;210;3027307;-39
2023/12/08 15:15:43;;;;;;;14.30;11.80;;;;;;;;;;85762;210;3030989;-43
2023/12/08 15:18:24;;;;;;;15.80;11.50;;;;;;;;;;85652;210;3031570;-44
2023/12/08 15:21:02;;;;;;;15.00;12.40;;;;;;;;;;85794;210;3027982;-42
2023/12/08 15:23:44;;;;;;;14.60;11.50;;;;;;;;;;85589;211;3027340;-46
2023/12/08 15:26:34;;;;;;;14.70;11.60;;;;;;;;;;85568;210;3032231;-42
2023/12/08 15:29:15;;;;;;;14.90;11.80;;;;;;;;;;85635;210;3031372;-42
2023/12/08 15:31:53;;;;;;;13.70;11.30;;;;;;;;;;85638;210;3028159;-44
2023/12/08 15:34:29;;;;;;;14.10;11.70;;;;;;;;;;85698;210;3027684;-41
2023/12/08 15:37:05;;;;;;;14.50;11.90;;;;;;;;;;85716;210;3031965;-45